sensor_id;sensor_type;location;lat;lon;timestamp;temperature;humidity
45868;DHT22;31582;45.490;7.860;2022-07-04T00:00:01;25.40;59.90
45868;DHT22;31582;45.490;7.860;2022-07-04T00:02:28;25.30;59.80
45868;DHT22;31582;45.490;7.860;2022-07-04T00:04:54;25.30;59.90
45868;DHT22;31582;45.490;7.860;2022-07-04T00:07:21;25.30;59.90
45868;DHT22;31582;45.490;7.860;2022-07-04T00:09:48;25.30;59.80
45868;DHT22;31582;45.490;7.860;2022-07-04T00:12:15;25.20;60.00
45868;DHT22;31582;45.490;7.860;2022-07-04T00:14:41;25.20;60.10
45868;DHT22;31582;45.490;7.860;2022-07-04T00:17:09;25.20;60.10
45868;DHT22;31582;45.490;7.860;2022-07-04T00:19:36;25.10;60.10
45868;DHT22;31582;45.490;7.860;2022-07-04T00:22:03;25.10;59.70
45868;DHT22;31582;45.490;7.860;2022-07-04T00:24:30;25.10;61.70
45868;DHT22;31582;45.490;7.860;2022-07-04T00:26:56;25.10;63.10
45868;DHT22;31582;45.490;7.860;2022-07-04T00:29:23;25.10;63.70
45868;DHT22;31582;45.490;7.860;2022-07-04T00:31:50;25.10;63.60
45868;DHT22;31582;45.490;7.860;2022-07-04T00:34:17;25.10;63.70
45868;DHT22;31582;45.490;7.860;2022-07-04T00:36:43;25.00;64.10
45868;DHT22;31582;45.490;7.860;2022-07-04T00:39:10;25.00;64.50
45868;DHT22;31582;45.490;7.860;2022-07-04T00:41:37;24.90;64.80
45868;DHT22;31582;45.490;7.860;2022-07-04T00:44:05;24.80;64.90
45868;DHT22;31582;45.490;7.860;2022-07-04T00:46:40;24.80;65.00
45868;DHT22;31582;45.490;7.860;2022-07-04T00:49:07;24.70;66.80
45868;DHT22;31582;45.490;7.860;2022-07-04T00:51:34;24.60;65.60
45868;DHT22;31582;45.490;7.860;2022-07-04T00:54:01;24.50;65.70
45868;DHT22;31582;45.490;7.860;2022-07-04T00:56:28;24.50;66.10
45868;DHT22;31582;45.490;7.860;2022-07-04T00:58:55;24.40;67.50
45868;DHT22;31582;45.490;7.860;2022-07-04T01:01:22;24.30;68.30
45868;DHT22;31582;45.490;7.860;2022-07-04T01:03:49;24.20;68.60
45868;DHT22;31582;45.490;7.860;2022-07-04T01:06:16;24.10;68.70
45868;DHT22;31582;45.490;7.860;2022-07-04T01:08:43;24.10;68.10
45868;DHT22;31582;45.490;7.860;2022-07-04T01:11:10;24.10;67.80
45868;DHT22;31582;45.490;7.860;2022-07-04T01:13:37;24.10;68.80
45868;DHT22;31582;45.490;7.860;2022-07-04T01:16:04;24.00;68.00
45868;DHT22;31582;45.490;7.860;2022-07-04T01:18:31;24.00;68.00
45868;DHT22;31582;45.490;7.860;2022-07-04T01:20:58;24.00;68.90
45868;DHT22;31582;45.490;7.860;2022-07-04T01:23:25;23.90;70.10
45868;DHT22;31582;45.490;7.860;2022-07-04T01:25:52;23.70;70.20
45868;DHT22;31582;45.490;7.860;2022-07-04T01:28:20;23.60;70.50
45868;DHT22;31582;45.490;7.860;2022-07-04T01:30:46;23.50;71.20
45868;DHT22;31582;45.490;7.860;2022-07-04T01:33:14;23.40;71.10
45868;DHT22;31582;45.490;7.860;2022-07-04T01:35:41;23.30;72.40
45868;DHT22;31582;45.490;7.860;2022-07-04T01:38:08;23.20;73.10
45868;DHT22;31582;45.490;7.860;2022-07-04T01:40:35;23.10;73.70
45868;DHT22;31582;45.490;7.860;2022-07-04T01:43:02;23.00;74.70
45868;DHT22;31582;45.490;7.860;2022-07-04T01:45:29;22.90;74.50
45868;DHT22;31582;45.490;7.860;2022-07-04T01:47:56;22.90;74.10
45868;DHT22;31582;45.490;7.860;2022-07-04T01:50:23;22.90;73.90
45868;DHT22;31582;45.490;7.860;2022-07-04T01:52:50;22.90;74.10
45868;DHT22;31582;45.490;7.860;2022-07-04T01:55:17;22.80;74.40
45868;DHT22;31582;45.490;7.860;2022-07-04T01:57:43;22.80;75.50
45868;DHT22;31582;45.490;7.860;2022-07-04T02:00:10;22.70;75.30
45868;DHT22;31582;45.490;7.860;2022-07-04T02:02:56;22.70;74.80
45868;DHT22;31582;45.490;7.860;2022-07-04T02:05:23;22.70;74.60
45868;DHT22;31582;45.490;7.860;2022-07-04T02:07:50;22.70;75.70
45868;DHT22;31582;45.490;7.860;2022-07-04T02:10:17;22.70;75.20
45868;DHT22;31582;45.490;7.860;2022-07-04T02:12:44;22.70;74.90
45868;DHT22;31582;45.490;7.860;2022-07-04T02:15:33;22.70;75.10
45868;DHT22;31582;45.490;7.860;2022-07-04T02:18:01;22.70;75.10
45868;DHT22;31582;45.490;7.860;2022-07-04T02:20:28;22.80;75.30
45868;DHT22;31582;45.490;7.860;2022-07-04T02:22:55;22.70;75.60
45868;DHT22;31582;45.490;7.860;2022-07-04T02:25:21;22.80;76.10
45868;DHT22;31582;45.490;7.860;2022-07-04T02:27:48;22.80;76.00
45868;DHT22;31582;45.490;7.860;2022-07-04T02:30:15;22.80;75.40
45868;DHT22;31582;45.490;7.860;2022-07-04T02:32:42;22.80;74.80
45868;DHT22;31582;45.490;7.860;2022-07-04T02:35:09;22.90;74.00
45868;DHT22;31582;45.490;7.860;2022-07-04T02:37:36;22.90;73.60
45868;DHT22;31582;45.490;7.860;2022-07-04T02:40:03;22.80;73.90
45868;DHT22;31582;45.490;7.860;2022-07-04T02:42:31;22.80;74.90
45868;DHT22;31582;45.490;7.860;2022-07-04T02:44:58;22.70;74.80
45868;DHT22;31582;45.490;7.860;2022-07-04T02:47:25;22.70;76.10
45868;DHT22;31582;45.490;7.860;2022-07-04T02:49:52;22.60;76.90
45868;DHT22;31582;45.490;7.860;2022-07-04T02:52:19;22.50;76.50
45868;DHT22;31582;45.490;7.860;2022-07-04T02:54:46;22.50;76.30
45868;DHT22;31582;45.490;7.860;2022-07-04T02:57:15;22.60;75.50
45868;DHT22;31582;45.490;7.860;2022-07-04T02:59:42;22.60;74.90
45868;DHT22;31582;45.490;7.860;2022-07-04T03:02:08;22.60;74.60
45868;DHT22;31582;45.490;7.860;2022-07-04T03:04:35;22.60;74.40
45868;DHT22;31582;45.490;7.860;2022-07-04T03:07:02;22.60;74.50
45868;DHT22;31582;45.490;7.860;2022-07-04T03:09:29;22.60;74.60
45868;DHT22;31582;45.490;7.860;2022-07-04T03:11:56;22.60;74.30
45868;DHT22;31582;45.490;7.860;2022-07-04T03:14:22;22.60;74.10
45868;DHT22;31582;45.490;7.860;2022-07-04T03:16:49;22.60;73.90
45868;DHT22;31582;45.490;7.860;2022-07-04T03:19:16;22.70;74.40
45868;DHT22;31582;45.490;7.860;2022-07-04T03:21:44;22.60;74.50
45868;DHT22;31582;45.490;7.860;2022-07-04T03:24:10;22.60;74.60
45868;DHT22;31582;45.490;7.860;2022-07-04T03:26:38;22.60;74.90
45868;DHT22;31582;45.490;7.860;2022-07-04T03:29:04;22.60;74.90
45868;DHT22;31582;45.490;7.860;2022-07-04T03:31:31;22.60;74.90
45868;DHT22;31582;45.490;7.860;2022-07-04T03:33:58;22.60;75.50
45868;DHT22;31582;45.490;7.860;2022-07-04T03:36:25;22.60;75.50
45868;DHT22;31582;45.490;7.860;2022-07-04T03:38:51;22.50;75.40
45868;DHT22;31582;45.490;7.860;2022-07-04T03:41:18;22.50;75.60
45868;DHT22;31582;45.490;7.860;2022-07-04T03:43:45;22.50;75.70
45868;DHT22;31582;45.490;7.860;2022-07-04T03:46:12;22.40;75.80
45868;DHT22;31582;45.490;7.860;2022-07-04T03:48:39;22.40;75.90
45868;DHT22;31582;45.490;7.860;2022-07-04T03:51:05;22.40;76.20
45868;DHT22;31582;45.490;7.860;2022-07-04T03:53:32;22.40;76.30
45868;DHT22;31582;45.490;7.860;2022-07-04T03:55:59;22.40;76.50
45868;DHT22;31582;45.490;7.860;2022-07-04T03:58:26;22.40;77.60
45868;DHT22;31582;45.490;7.860;2022-07-04T04:00:52;22.40;77.10
45868;DHT22;31582;45.490;7.860;2022-07-04T04:03:19;22.40;77.60
45868;DHT22;31582;45.490;7.860;2022-07-04T04:06:05;22.40;77.70
45868;DHT22;31582;45.490;7.860;2022-07-04T04:08:31;22.30;77.80
45868;DHT22;31582;45.490;7.860;2022-07-04T04:10:58;22.30;78.10
45868;DHT22;31582;45.490;7.860;2022-07-04T04:13:25;22.30;79.00
45868;DHT22;31582;45.490;7.860;2022-07-04T04:15:52;22.30;80.40
45868;DHT22;31582;45.490;7.860;2022-07-04T04:18:18;22.30;79.50
45868;DHT22;31582;45.490;7.860;2022-07-04T04:20:45;22.20;79.60
45868;DHT22;31582;45.490;7.860;2022-07-04T04:23:12;22.20;79.80
45868;DHT22;31582;45.490;7.860;2022-07-04T04:25:39;22.20;80.00
45868;DHT22;31582;45.490;7.860;2022-07-04T04:28:05;22.20;80.10
45868;DHT22;31582;45.490;7.860;2022-07-04T04:30:32;22.20;80.30
45868;DHT22;31582;45.490;7.860;2022-07-04T04:33:00;22.20;80.40
45868;DHT22;31582;45.490;7.860;2022-07-04T04:35:26;22.20;80.80
45868;DHT22;31582;45.490;7.860;2022-07-04T04:37:53;22.20;81.50
45868;DHT22;31582;45.490;7.860;2022-07-04T04:40:20;22.20;82.30
45868;DHT22;31582;45.490;7.860;2022-07-04T04:42:47;22.20;81.80
45868;DHT22;31582;45.490;7.860;2022-07-04T04:45:13;22.10;81.40
45868;DHT22;31582;45.490;7.860;2022-07-04T04:47:40;22.10;81.40
45868;DHT22;31582;45.490;7.860;2022-07-04T04:50:09;22.20;81.30
45868;DHT22;31582;45.490;7.860;2022-07-04T04:52:38;22.20;81.50
45868;DHT22;31582;45.490;7.860;2022-07-04T04:55:05;22.20;81.70
45868;DHT22;31582;45.490;7.860;2022-07-04T04:57:32;22.20;82.20
45868;DHT22;31582;45.490;7.860;2022-07-04T04:59:58;22.30;81.70
45868;DHT22;31582;45.490;7.860;2022-07-04T05:02:25;22.30;82.10
45868;DHT22;31582;45.490;7.860;2022-07-04T05:04:53;22.30;82.10
45868;DHT22;31582;45.490;7.860;2022-07-04T05:07:20;22.30;82.30
45868;DHT22;31582;45.490;7.860;2022-07-04T05:09:47;22.30;82.60
45868;DHT22;31582;45.490;7.860;2022-07-04T05:12:13;22.20;82.30
45868;DHT22;31582;45.490;7.860;2022-07-04T05:14:40;22.20;82.00
45868;DHT22;31582;45.490;7.860;2022-07-04T05:17:07;22.20;82.00
45868;DHT22;31582;45.490;7.860;2022-07-04T05:19:34;22.20;82.40
45868;DHT22;31582;45.490;7.860;2022-07-04T05:22:01;22.30;82.40
45868;DHT22;31582;45.490;7.860;2022-07-04T05:24:28;22.30;83.10
45868;DHT22;31582;45.490;7.860;2022-07-04T05:26:54;22.30;84.90
45868;DHT22;31582;45.490;7.860;2022-07-04T05:29:24;22.30;84.50
45868;DHT22;31582;45.490;7.860;2022-07-04T05:31:50;22.30;83.70
45868;DHT22;31582;45.490;7.860;2022-07-04T05:34:17;22.30;84.00
45868;DHT22;31582;45.490;7.860;2022-07-04T05:36:45;22.30;83.90
45868;DHT22;31582;45.490;7.860;2022-07-04T05:39:12;22.30;83.60
45868;DHT22;31582;45.490;7.860;2022-07-04T05:41:38;22.30;85.30
45868;DHT22;31582;45.490;7.860;2022-07-04T05:44:05;22.20;86.00
45868;DHT22;31582;45.490;7.860;2022-07-04T05:46:32;22.20;87.00
45868;DHT22;31582;45.490;7.860;2022-07-04T05:48:59;22.10;86.60
45868;DHT22;31582;45.490;7.860;2022-07-04T05:51:25;22.10;86.60
45868;DHT22;31582;45.490;7.860;2022-07-04T05:53:52;22.10;87.60
45868;DHT22;31582;45.490;7.860;2022-07-04T05:56:19;22.10;86.90
45868;DHT22;31582;45.490;7.860;2022-07-04T05:58:46;22.10;85.50
45868;DHT22;31582;45.490;7.860;2022-07-04T06:01:13;22.20;81.70
45868;DHT22;31582;45.490;7.860;2022-07-04T06:03:39;22.30;79.20
45868;DHT22;31582;45.490;7.860;2022-07-04T06:06:07;22.30;78.50
45868;DHT22;31582;45.490;7.860;2022-07-04T06:08:33;22.30;78.00
45868;DHT22;31582;45.490;7.860;2022-07-04T06:11:00;22.40;77.10
45868;DHT22;31582;45.490;7.860;2022-07-04T06:13:27;22.50;76.40
45868;DHT22;31582;45.490;7.860;2022-07-04T06:15:54;22.60;75.70
45868;DHT22;31582;45.490;7.860;2022-07-04T06:18:21;22.60;75.50
45868;DHT22;31582;45.490;7.860;2022-07-04T06:20:48;22.70;75.00
45868;DHT22;31582;45.490;7.860;2022-07-04T06:23:15;22.70;74.60
45868;DHT22;31582;45.490;7.860;2022-07-04T06:25:41;22.70;75.50
45868;DHT22;31582;45.490;7.860;2022-07-04T06:28:08;22.80;75.60
45868;DHT22;31582;45.490;7.860;2022-07-04T06:30:55;22.80;74.80
45868;DHT22;31582;45.490;7.860;2022-07-04T06:33:22;22.90;74.30
45868;DHT22;31582;45.490;7.860;2022-07-04T06:35:49;22.90;74.30
45868;DHT22;31582;45.490;7.860;2022-07-04T06:38:25;23.00;73.80
45868;DHT22;31582;45.490;7.860;2022-07-04T06:40:58;23.10;73.40
45868;DHT22;31582;45.490;7.860;2022-07-04T06:43:25;23.10;72.40
45868;DHT22;31582;45.490;7.860;2022-07-04T06:45:52;23.20;71.60
45868;DHT22;31582;45.490;7.860;2022-07-04T06:48:19;23.30;70.60
45868;DHT22;31582;45.490;7.860;2022-07-04T06:50:46;23.40;70.60
45868;DHT22;31582;45.490;7.860;2022-07-04T06:53:13;23.50;70.70
45868;DHT22;31582;45.490;7.860;2022-07-04T06:55:40;23.60;69.80
45868;DHT22;31582;45.490;7.860;2022-07-04T06:58:08;23.80;69.60
45868;DHT22;31582;45.490;7.860;2022-07-04T07:00:35;24.00;68.10
45868;DHT22;31582;45.490;7.860;2022-07-04T07:03:02;24.20;68.20
45868;DHT22;31582;45.490;7.860;2022-07-04T07:05:30;24.40;67.30
45868;DHT22;31582;45.490;7.860;2022-07-04T07:08:17;24.50;66.70
45868;DHT22;31582;45.490;7.860;2022-07-04T07:10:43;24.70;66.50
45868;DHT22;31582;45.490;7.860;2022-07-04T07:13:10;24.90;65.10
45868;DHT22;31582;45.490;7.860;2022-07-04T07:15:37;25.10;65.50
45868;DHT22;31582;45.490;7.860;2022-07-04T07:18:04;25.20;63.70
45868;DHT22;31582;45.490;7.860;2022-07-04T07:20:31;25.40;62.90
45868;DHT22;31582;45.490;7.860;2022-07-04T07:22:58;25.50;62.50
45868;DHT22;31582;45.490;7.860;2022-07-04T07:25:25;25.70;62.90
45868;DHT22;31582;45.490;7.860;2022-07-04T07:27:51;25.80;62.30
45868;DHT22;31582;45.490;7.860;2022-07-04T07:30:18;26.10;60.70
45868;DHT22;31582;45.490;7.860;2022-07-04T07:32:45;26.30;61.20
45868;DHT22;31582;45.490;7.860;2022-07-04T07:35:11;26.40;60.90
45868;DHT22;31582;45.490;7.860;2022-07-04T07:37:38;26.70;60.00
45868;DHT22;31582;45.490;7.860;2022-07-04T07:40:05;26.90;58.90
45868;DHT22;31582;45.490;7.860;2022-07-04T07:42:32;27.10;56.30
45868;DHT22;31582;45.490;7.860;2022-07-04T07:45:00;27.20;57.30
45868;DHT22;31582;45.490;7.860;2022-07-04T07:47:27;27.40;56.00
45868;DHT22;31582;45.490;7.860;2022-07-04T07:49:54;27.60;54.30
45868;DHT22;31582;45.490;7.860;2022-07-04T07:52:22;27.70;54.50
45868;DHT22;31582;45.490;7.860;2022-07-04T07:54:53;27.80;53.70
45868;DHT22;31582;45.490;7.860;2022-07-04T07:57:28;27.90;53.30
45868;DHT22;31582;45.490;7.860;2022-07-04T07:59:55;28.10;55.30
45868;DHT22;31582;45.490;7.860;2022-07-04T08:02:22;28.30;52.90
45868;DHT22;31582;45.490;7.860;2022-07-04T08:05:07;28.50;51.90
45868;DHT22;31582;45.490;7.860;2022-07-04T08:07:34;28.70;52.50
45868;DHT22;31582;45.490;7.860;2022-07-04T08:10:01;28.80;52.50
45868;DHT22;31582;45.490;7.860;2022-07-04T08:12:28;29.00;53.40
45868;DHT22;31582;45.490;7.860;2022-07-04T08:14:55;29.20;52.30
45868;DHT22;31582;45.490;7.860;2022-07-04T08:17:22;29.30;49.30
45868;DHT22;31582;45.490;7.860;2022-07-04T08:19:49;29.50;49.10
45868;DHT22;31582;45.490;7.860;2022-07-04T08:22:16;29.50;53.30
45868;DHT22;31582;45.490;7.860;2022-07-04T08:24:43;29.70;56.20
45868;DHT22;31582;45.490;7.860;2022-07-04T08:27:10;29.90;55.80
45868;DHT22;31582;45.490;7.860;2022-07-04T08:29:37;29.90;54.50
45868;DHT22;31582;45.490;7.860;2022-07-04T08:32:04;30.00;54.70
45868;DHT22;31582;45.490;7.860;2022-07-04T08:34:34;30.10;56.00
45868;DHT22;31582;45.490;7.860;2022-07-04T08:37:01;30.30;56.10
45868;DHT22;31582;45.490;7.860;2022-07-04T08:39:28;30.40;53.60
45868;DHT22;31582;45.490;7.860;2022-07-04T08:41:55;30.40;51.70
45868;DHT22;31582;45.490;7.860;2022-07-04T08:44:22;30.40;51.80
45868;DHT22;31582;45.490;7.860;2022-07-04T08:46:50;30.40;52.70
45868;DHT22;31582;45.490;7.860;2022-07-04T08:49:20;30.50;52.60
45868;DHT22;31582;45.490;7.860;2022-07-04T08:51:51;30.50;50.00
45868;DHT22;31582;45.490;7.860;2022-07-04T08:54:19;30.50;50.70
45868;DHT22;31582;45.490;7.860;2022-07-04T08:57:06;30.60;47.80
45868;DHT22;31582;45.490;7.860;2022-07-04T08:59:51;30.60;48.00
45868;DHT22;31582;45.490;7.860;2022-07-04T09:02:20;30.70;48.70
45868;DHT22;31582;45.490;7.860;2022-07-04T09:04:49;30.70;47.10
45868;DHT22;31582;45.490;7.860;2022-07-04T09:07:15;30.80;48.40
45868;DHT22;31582;45.490;7.860;2022-07-04T09:09:46;30.90;48.20
45868;DHT22;31582;45.490;7.860;2022-07-04T09:12:17;31.10;48.20
45868;DHT22;31582;45.490;7.860;2022-07-04T09:14:44;31.20;46.90
45868;DHT22;31582;45.490;7.860;2022-07-04T09:17:11;31.30;47.70
45868;DHT22;31582;45.490;7.860;2022-07-04T09:19:39;31.50;48.10
45868;DHT22;31582;45.490;7.860;2022-07-04T09:22:09;31.50;45.10
45868;DHT22;31582;45.490;7.860;2022-07-04T09:24:52;31.60;46.00
45868;DHT22;31582;45.490;7.860;2022-07-04T09:27:31;31.70;46.10
45868;DHT22;31582;45.490;7.860;2022-07-04T09:29:58;31.80;46.50
45868;DHT22;31582;45.490;7.860;2022-07-04T09:32:44;32.00;44.40
45868;DHT22;31582;45.490;7.860;2022-07-04T09:37:41;31.90;43.40
45868;DHT22;31582;45.490;7.860;2022-07-04T09:40:24;31.80;43.50
45868;DHT22;31582;45.490;7.860;2022-07-04T09:42:52;31.70;43.50
45868;DHT22;31582;45.490;7.860;2022-07-04T09:45:19;31.70;45.00
45868;DHT22;31582;45.490;7.860;2022-07-04T09:47:50;31.70;44.90
45868;DHT22;31582;45.490;7.860;2022-07-04T09:50:17;31.80;45.90
45868;DHT22;31582;45.490;7.860;2022-07-04T09:52:52;31.90;45.20
45868;DHT22;31582;45.490;7.860;2022-07-04T09:55:29;32.00;46.20
45868;DHT22;31582;45.490;7.860;2022-07-04T09:58:04;32.00;44.60
45868;DHT22;31582;45.490;7.860;2022-07-04T10:00:32;31.90;44.00
45868;DHT22;31582;45.490;7.860;2022-07-04T10:03:18;31.80;44.60
45868;DHT22;31582;45.490;7.860;2022-07-04T10:05:46;31.70;44.60
45868;DHT22;31582;45.490;7.860;2022-07-04T10:08:20;31.80;44.20
45868;DHT22;31582;45.490;7.860;2022-07-04T10:10:47;31.80;43.20
45868;DHT22;31582;45.490;7.860;2022-07-04T10:13:14;31.90;42.70
45868;DHT22;31582;45.490;7.860;2022-07-04T10:15:41;31.90;44.40
45868;DHT22;31582;45.490;7.860;2022-07-04T10:18:08;32.00;44.40
45868;DHT22;31582;45.490;7.860;2022-07-04T10:20:36;32.00;42.90
45868;DHT22;31582;45.490;7.860;2022-07-04T10:23:03;32.00;43.10
45868;DHT22;31582;45.490;7.860;2022-07-04T10:25:30;32.10;43.10
45868;DHT22;31582;45.490;7.860;2022-07-04T10:27:56;32.20;43.50
45868;DHT22;31582;45.490;7.860;2022-07-04T10:30:24;32.30;43.10
45868;DHT22;31582;45.490;7.860;2022-07-04T10:32:53;32.30;43.00
45868;DHT22;31582;45.490;7.860;2022-07-04T10:38:06;32.60;42.90
45868;DHT22;31582;45.490;7.860;2022-07-04T10:40:43;32.80;42.40
45868;DHT22;31582;45.490;7.860;2022-07-04T10:48:51;33.00;41.70
45868;DHT22;31582;45.490;7.860;2022-07-04T10:54:29;33.20;42.70
45868;DHT22;31582;45.490;7.860;2022-07-04T10:57:10;33.30;42.30
45868;DHT22;31582;45.490;7.860;2022-07-04T10:59:41;33.40;40.80
45868;DHT22;31582;45.490;7.860;2022-07-04T11:05:01;33.00;41.10
45868;DHT22;31582;45.490;7.860;2022-07-04T11:18:10;33.50;41.50
45868;DHT22;31582;45.490;7.860;2022-07-04T11:20:37;33.30;40.60
45868;DHT22;31582;45.490;7.860;2022-07-04T11:25:36;33.20;41.20
45868;DHT22;31582;45.490;7.860;2022-07-04T11:28:22;33.20;42.70
45868;DHT22;31582;45.490;7.860;2022-07-04T11:31:09;33.30;41.50
45868;DHT22;31582;45.490;7.860;2022-07-04T11:33:37;33.50;41.40
45868;DHT22;31582;45.490;7.860;2022-07-04T11:36:06;33.50;41.60
45868;DHT22;31582;45.490;7.860;2022-07-04T11:38:45;33.50;42.20
45868;DHT22;31582;45.490;7.860;2022-07-04T11:41:12;33.50;41.20
45868;DHT22;31582;45.490;7.860;2022-07-04T11:43:57;33.20;39.00
45868;DHT22;31582;45.490;7.860;2022-07-04T11:46:42;32.80;40.60
45868;DHT22;31582;45.490;7.860;2022-07-04T11:49:10;32.50;42.20
45868;DHT22;31582;45.490;7.860;2022-07-04T11:51:46;32.20;42.60
45868;DHT22;31582;45.490;7.860;2022-07-04T11:54:13;32.00;43.80
45868;DHT22;31582;45.490;7.860;2022-07-04T11:57:11;31.90;43.90
45868;DHT22;31582;45.490;7.860;2022-07-04T11:59:38;31.80;44.60
45868;DHT22;31582;45.490;7.860;2022-07-04T12:02:12;31.80;45.00
45868;DHT22;31582;45.490;7.860;2022-07-04T12:04:39;31.80;44.30
45868;DHT22;31582;45.490;7.860;2022-07-04T12:07:08;31.70;44.00
45868;DHT22;31582;45.490;7.860;2022-07-04T12:09:36;31.60;44.30
45868;DHT22;31582;45.490;7.860;2022-07-04T12:12:03;31.40;44.90
45868;DHT22;31582;45.490;7.860;2022-07-04T12:14:30;31.30;45.50
45868;DHT22;31582;45.490;7.860;2022-07-04T12:19:36;31.00;45.00
45868;DHT22;31582;45.490;7.860;2022-07-04T12:22:03;30.80;46.80
45868;DHT22;31582;45.490;7.860;2022-07-04T12:24:42;30.60;48.10
45868;DHT22;31582;45.490;7.860;2022-07-04T12:27:16;30.30;48.80
45868;DHT22;31582;45.490;7.860;2022-07-04T12:29:46;30.10;49.30
45868;DHT22;31582;45.490;7.860;2022-07-04T12:32:13;30.00;50.10
45868;DHT22;31582;45.490;7.860;2022-07-04T12:34:40;30.00;50.70
45868;DHT22;31582;45.490;7.860;2022-07-04T12:37:08;29.90;51.90
45868;DHT22;31582;45.490;7.860;2022-07-04T12:39:36;29.80;56.20
45868;DHT22;31582;45.490;7.860;2022-07-04T12:42:08;29.50;60.40
45868;DHT22;31582;45.490;7.860;2022-07-04T12:44:36;29.10;62.00
45868;DHT22;31582;45.490;7.860;2022-07-04T12:47:03;28.90;65.90
45868;DHT22;31582;45.490;7.860;2022-07-04T12:49:42;28.80;67.80
45868;DHT22;31582;45.490;7.860;2022-07-04T12:52:14;28.80;68.60
45868;DHT22;31582;45.490;7.860;2022-07-04T12:54:41;28.90;68.00
45868;DHT22;31582;45.490;7.860;2022-07-04T12:57:12;29.20;69.50
45868;DHT22;31582;45.490;7.860;2022-07-04T12:59:39;29.60;66.90
45868;DHT22;31582;45.490;7.860;2022-07-04T13:02:07;30.10;64.30
45868;DHT22;31582;45.490;7.860;2022-07-04T13:04:35;30.50;63.20
45868;DHT22;31582;45.490;7.860;2022-07-04T13:07:12;30.70;61.90
45868;DHT22;31582;45.490;7.860;2022-07-04T13:09:40;31.00;61.00
45868;DHT22;31582;45.490;7.860;2022-07-04T13:12:07;31.30;59.40
45868;DHT22;31582;45.490;7.860;2022-07-04T13:14:53;31.70;57.80
45868;DHT22;31582;45.490;7.860;2022-07-04T13:17:20;31.90;56.30
45868;DHT22;31582;45.490;7.860;2022-07-04T13:19:47;32.00;57.40
45868;DHT22;31582;45.490;7.860;2022-07-04T13:22:14;32.30;56.30
45868;DHT22;31582;45.490;7.860;2022-07-04T13:24:40;32.60;55.20
45868;DHT22;31582;45.490;7.860;2022-07-04T13:27:07;32.70;53.70
45868;DHT22;31582;45.490;7.860;2022-07-04T13:29:34;32.80;55.10
45868;DHT22;31582;45.490;7.860;2022-07-04T13:32:02;33.00;54.70
45868;DHT22;31582;45.490;7.860;2022-07-04T13:34:35;33.10;52.90
45868;DHT22;31582;45.490;7.860;2022-07-04T13:37:02;33.40;51.40
45868;DHT22;31582;45.490;7.860;2022-07-04T13:39:29;33.60;50.10
45868;DHT22;31582;45.490;7.860;2022-07-04T13:42:15;33.70;48.10
45868;DHT22;31582;45.490;7.860;2022-07-04T13:45:02;33.80;49.00
45868;DHT22;31582;45.490;7.860;2022-07-04T13:47:30;34.00;49.90
45868;DHT22;31582;45.490;7.860;2022-07-04T13:49:57;34.10;48.70
45868;DHT22;31582;45.490;7.860;2022-07-04T13:52:24;34.30;47.20
45868;DHT22;31582;45.490;7.860;2022-07-04T13:54:51;34.50;46.80
45868;DHT22;31582;45.490;7.860;2022-07-04T13:57:18;34.60;46.00
45868;DHT22;31582;45.490;7.860;2022-07-04T13:59:45;34.80;46.30
45868;DHT22;31582;45.490;7.860;2022-07-04T14:02:12;35.00;44.80
45868;DHT22;31582;45.490;7.860;2022-07-04T14:04:38;35.20;44.30
45868;DHT22;31582;45.490;7.860;2022-07-04T14:07:05;35.30;43.20
45868;DHT22;31582;45.490;7.860;2022-07-04T14:09:40;35.50;41.80
45868;DHT22;31582;45.490;7.860;2022-07-04T14:12:07;35.70;42.30
45868;DHT22;31582;45.490;7.860;2022-07-04T14:14:34;35.80;40.90
45868;DHT22;31582;45.490;7.860;2022-07-04T14:17:01;35.80;40.80
45868;DHT22;31582;45.490;7.860;2022-07-04T14:19:48;35.80;39.40
45868;DHT22;31582;45.490;7.860;2022-07-04T14:22:14;35.80;39.20
45868;DHT22;31582;45.490;7.860;2022-07-04T14:24:41;35.90;39.20
45868;DHT22;31582;45.490;7.860;2022-07-04T14:27:11;35.80;39.00
45868;DHT22;31582;45.490;7.860;2022-07-04T14:29:38;35.70;38.40
45868;DHT22;31582;45.490;7.860;2022-07-04T14:32:09;35.50;37.20
45868;DHT22;31582;45.490;7.860;2022-07-04T14:34:36;35.20;38.40
45868;DHT22;31582;45.490;7.860;2022-07-04T14:37:02;35.00;38.90
45868;DHT22;31582;45.490;7.860;2022-07-04T14:39:29;34.70;39.90
45868;DHT22;31582;45.490;7.860;2022-07-04T14:41:56;34.50;41.40
45868;DHT22;31582;45.490;7.860;2022-07-04T14:44:23;34.40;41.80
45868;DHT22;31582;45.490;7.860;2022-07-04T14:46:50;34.10;42.40
45868;DHT22;31582;45.490;7.860;2022-07-04T14:49:17;33.90;43.00
45868;DHT22;31582;45.490;7.860;2022-07-04T14:51:44;33.60;43.80
45868;DHT22;31582;45.490;7.860;2022-07-04T14:54:11;33.40;44.10
45868;DHT22;31582;45.490;7.860;2022-07-04T14:56:38;33.20;45.00
45868;DHT22;31582;45.490;7.860;2022-07-04T14:59:05;32.90;45.50
45868;DHT22;31582;45.490;7.860;2022-07-04T15:01:32;32.80;45.80
45868;DHT22;31582;45.490;7.860;2022-07-04T15:03:59;32.70;45.80
45868;DHT22;31582;45.490;7.860;2022-07-04T15:06:26;32.50;45.80
45868;DHT22;31582;45.490;7.860;2022-07-04T15:08:53;32.40;45.10
45868;DHT22;31582;45.490;7.860;2022-07-04T15:11:21;32.40;45.10
45868;DHT22;31582;45.490;7.860;2022-07-04T15:13:48;32.50;45.10
45868;DHT22;31582;45.490;7.860;2022-07-04T15:16:15;32.60;45.80
45868;DHT22;31582;45.490;7.860;2022-07-04T15:18:49;32.50;45.10
45868;DHT22;31582;45.490;7.860;2022-07-04T15:21:16;32.50;45.60
45868;DHT22;31582;45.490;7.860;2022-07-04T15:24:01;32.50;45.60
45868;DHT22;31582;45.490;7.860;2022-07-04T15:26:39;32.50;45.80
45868;DHT22;31582;45.490;7.860;2022-07-04T15:29:06;32.30;45.80
45868;DHT22;31582;45.490;7.860;2022-07-04T15:31:39;32.20;46.10
45868;DHT22;31582;45.490;7.860;2022-07-04T15:34:06;32.10;45.90
45868;DHT22;31582;45.490;7.860;2022-07-04T15:36:33;31.80;46.20
45868;DHT22;31582;45.490;7.860;2022-07-04T15:39:03;31.70;46.90
45868;DHT22;31582;45.490;7.860;2022-07-04T15:41:31;31.60;47.40
45868;DHT22;31582;45.490;7.860;2022-07-04T15:43:58;31.40;47.30
45868;DHT22;31582;45.490;7.860;2022-07-04T15:46:26;31.30;47.90
45868;DHT22;31582;45.490;7.860;2022-07-04T15:48:53;31.10;48.90
45868;DHT22;31582;45.490;7.860;2022-07-04T15:51:20;30.90;50.60
45868;DHT22;31582;45.490;7.860;2022-07-04T15:54:06;30.70;52.40
45868;DHT22;31582;45.490;7.860;2022-07-04T15:56:33;30.50;54.60
45868;DHT22;31582;45.490;7.860;2022-07-04T15:59:00;30.20;55.80
45868;DHT22;31582;45.490;7.860;2022-07-04T16:01:26;30.10;59.70
45868;DHT22;31582;45.490;7.860;2022-07-04T16:03:53;29.80;60.40
45868;DHT22;31582;45.490;7.860;2022-07-04T16:06:21;29.50;63.70
45868;DHT22;31582;45.490;7.860;2022-07-04T16:08:48;29.00;64.30
45868;DHT22;31582;45.490;7.860;2022-07-04T16:11:14;28.50;64.60